Time;durP1;ratioP1;P1;durP2;ratioP2;P2;SDS_P1;SDS_P2;PMS_P1;PMS_P2;Temp;Humidity;BMP_temperature;BMP_pressure;BME280_temperature;BME280_humidity;BME280_pressure;Samples;Min_cycle;Max_cycle;Signal;HPM_P1;HPM_P2
2021/11/28 00:01:24;;;;;;;1.35;1.08;;;15.60;50.20;;;;;;20718713;28;20053;-78
2021/11/28 00:11:30;;;;;;;2.13;1.20;;;15.60;50.20;;;;;;20701343;28;20038;-77
2021/11/28 00:21:31;;;;;;;2.30;1.37;;;15.60;50.20;;;;;;20702116;28;20045;-76
2021/11/28 00:31:32;;;;;;;2.80;1.35;;;15.50;50.20;;;;;;20715565;28;20591;-75
2021/11/28 00:41:32;;;;;;;1.58;1.17;;;15.50;50.20;;;;;;20699271;28;20053;-75
2021/11/28 01:01:34;;;;;;;2.08;1.40;;;15.40;50.20;;;;;;20697875;28;20041;-76
2021/11/28 01:11:35;;;;;;;2.28;1.27;;;15.40;50.20;;;;;;20694716;28;20092;-76
2021/11/28 01:21:35;;;;;;;4.10;1.42;;;15.40;50.20;;;;;;20711763;28;20045;-76
2021/11/28 01:31:36;;;;;;;2.40;1.15;;;15.30;50.10;;;;;;20711205;28;20038;-76
2021/11/28 01:41:36;;;;;;;2.65;1.70;;;15.30;50.10;;;;;;20710897;28;20396;-75
2021/11/28 01:51:38;;;;;;;2.35;1.35;;;15.30;50.10;;;;;;20710021;28;20083;-75
2021/11/28 02:01:39;;;;;;;2.35;1.00;;;15.20;50.10;;;;;;20709560;28;20551;-76
2021/11/28 02:11:41;;;;;;;2.45;1.42;;;15.20;50.10;;;;;;20709158;28;20073;-76
2021/11/28 02:21:42;;;;;;;1.70;1.23;;;15.20;50.00;;;;;;20707872;28;20030;-76
2021/11/28 02:31:42;;;;;;;2.55;1.33;;;15.20;50.10;;;;;;20724498;28;20423;-76
2021/11/28 02:41:43;;;;;;;2.72;1.50;;;15.10;50.10;;;;;;20707366;28;20501;-76
2021/11/28 02:51:44;;;;;;;1.65;1.23;;;15.10;50.00;;;;;;20707309;28;20042;-76
2021/11/28 03:01:44;;;;;;;3.15;1.30;;;15.10;50.10;;;;;;20724380;28;20126;-76
2021/11/28 03:12:07;;;;;;;2.35;1.40;;;15.10;50.10;;;;;;20711112;28;20042;-76
2021/11/28 03:22:07;;;;;;;1.27;1.10;;;15.00;50.10;;;;;;20640296;28;20113;-76
2021/11/28 03:32:08;;;;;;;3.23;1.70;;;15.00;50.10;;;;;;20623798;28;20039;-76
2021/11/28 03:42:09;;;;;;;2.67;1.15;;;15.00;50.10;;;;;;20655419;28;20293;-76
2021/11/28 03:52:13;;;;;;;2.28;1.60;;;15.00;50.20;;;;;;20623333;28;20053;-76
2021/11/28 04:02:14;;;;;;;2.42;1.17;;;14.90;50.20;;;;;;20638971;28;20034;-75
2021/11/28 04:12:15;;;;;;;2.38;1.35;;;14.90;50.20;;;;;;20651589;28;20058;-77
2021/11/28 04:22:15;;;;;;;3.55;1.40;;;14.90;50.20;;;;;;20620184;28;20084;-76
2021/11/28 04:32:17;;;;;;;2.08;1.05;;;14.80;50.20;;;;;;20635302;28;20237;-75
2021/11/28 04:42:27;;;;;;;2.60;1.50;;;14.80;50.20;;;;;;20651839;28;20397;-75
2021/11/28 04:52:28;;;;;;;2.20;1.13;;;14.80;50.20;;;;;;20633772;28;20088;-76
2021/11/28 05:02:29;;;;;;;1.98;1.08;;;14.70;50.20;;;;;;20617239;28;20125;-75
2021/11/28 05:12:29;;;;;;;3.73;1.40;;;14.80;50.20;;;;;;20631872;28;20046;-75
2021/11/28 05:22:30;;;;;;;2.28;1.13;;;15.80;48.30;;;;;;20668166;28;20136;-75
2021/11/28 05:32:35;;;;;;;2.60;1.42;;;16.90;46.00;;;;;;20680769;28;20069;-76
2021/11/28 05:42:55;;;;;;;3.00;1.73;;;18.10;43.40;;;;;;20703497;28;20297;-76
2021/11/28 05:52:57;;;;;;;1.92;1.10;;;19.30;40.90;;;;;;20678356;28;20041;-77
2021/11/28 06:02:58;;;;;;;1.92;1.30;;;20.00;39.30;;;;;;20711283;28;20053;-75
2021/11/28 06:13:11;;;;;;;3.50;1.90;;;20.30;38.60;;;;;;20712567;28;20049;-76
2021/11/28 06:23:14;;;;;;;1.98;0.98;;;20.50;38.00;;;;;;20676666;28;20396;-76
2021/11/28 06:33:15;;;;;;;1.92;1.20;;;20.50;37.60;;;;;;20691147;28;20499;-76
2021/11/28 06:43:34;;;;;;;3.05;1.33;;;19.60;38.90;;;;;;20726091;28;20500;-76
2021/11/28 06:53:34;;;;;;;2.03;1.30;;;18.50;40.60;;;;;;20707023;28;20065;-76
2021/11/28 07:04:13;;;;;;;4.03;2.00;;;17.60;42.10;;;;;;20716770;28;20096;-75
2021/11/28 07:14:50;;;;;;;5.25;1.95;;;16.90;43.50;;;;;;20700783;28;20049;-76
2021/11/28 07:24:54;;;;;;;4.37;2.13;;;16.50;44.40;;;;;;20691268;28;20038;-75
2021/11/28 07:34:56;;;;;;;5.35;2.63;;;16.30;45.10;;;;;;20689713;28;20432;-76
2021/11/28 07:45:14;;;;;;;5.85;2.42;;;16.20;45.60;;;;;;20708711;28;20042;-81
2021/11/28 07:55:33;;;;;;;4.65;2.08;;;16.00;45.90;;;;;;20647133;28;20046;-79
2021/11/28 08:05:34;;;;;;;3.55;2.28;;;16.00;46.80;;;;;;20699696;28;20583;-77
2021/11/28 08:15:54;;;;;;;6.88;2.60;;;15.90;46.40;;;;;;20727714;28;20089;-77
2021/11/28 08:25:55;;;;;;;3.78;1.95;;;15.90;46.60;;;;;;20680947;28;20092;-75
2021/11/28 08:35:55;;;;;;;3.20;1.80;;;15.80;46.70;;;;;;20734705;28;20120;-72
2021/11/28 08:45:56;;;;;;;5.93;2.20;;;15.90;46.80;;;;;;20732204;28;20036;-76
2021/11/28 08:55:56;;;;;;;6.25;1.50;;;15.90;46.80;;;;;;20704377;28;20416;-78
2021/11/28 09:05:57;;;;;;;110.38;9.15;;;15.80;46.90;;;;;;20713541;28;20038;-74
2021/11/28 09:15:58;;;;;;;20.15;4.05;;;15.70;47.80;;;;;;20697360;28;20117;-71
2021/11/28 09:26:02;;;;;;;20.13;3.10;;;15.60;48.50;;;;;;20708811;28;20125;-73
2021/11/28 09:36:12;;;;;;;9.43;1.95;;;15.50;48.80;;;;;;20704242;28;20048;-73
2021/11/28 09:46:13;;;;;;;2.47;1.05;;;15.40;48.90;;;;;;20673949;28;20037;-71
2021/11/28 09:56:14;;;;;;;5.55;1.40;;;15.30;49.10;;;;;;20722850;28;20037;-75
2021/11/28 10:06:14;;;;;;;4.10;0.88;;;15.20;49.30;;;;;;20673944;28;20381;-73
2021/11/28 10:16:15;;;;;;;3.88;1.60;;;15.40;48.90;;;;;;20699738;28;20038;-73
2021/11/28 10:26:16;;;;;;;5.40;1.75;;;15.40;48.70;;;;;;20688506;28;20136;-73
2021/11/28 10:36:18;;;;;;;3.13;1.35;;;15.40;48.70;;;;;;20703603;28;20036;-73
2021/11/28 10:46:30;;;;;;;3.13;1.17;;;15.30;48.80;;;;;;20703927;28;20439;-72
2021/11/28 10:56:31;;;;;;;3.58;1.13;;;15.30;48.90;;;;;;20718407;28;20503;-74
2021/11/28 11:16:51;;;;;;;4.10;2.10;;;15.50;48.40;;;;;;20791190;23;20054;-75
2021/11/28 11:26:51;;;;;;;4.28;1.80;;;16.60;46.40;;;;;;20721734;28;20078;-72
2021/11/28 11:37:12;;;;;;;3.20;1.80;;;17.50;44.60;;;;;;20701829;28;20061;-74
2021/11/28 11:47:12;;;;;;;3.65;1.90;;;18.70;42.30;;;;;;20738755;28;20456;-74
2021/11/28 11:57:23;;;;;;;4.53;2.10;;;19.50;40.70;;;;;;20721529;28;20037;-74
2021/11/28 12:07:50;;;;;;;3.85;1.85;;;19.90;39.50;;;;;;20719027;28;20065;-74
2021/11/28 12:17:51;;;;;;;3.17;1.50;;;20.20;38.90;;;;;;20701942;28;20034;-78
2021/11/28 12:27:53;;;;;;;5.43;1.80;;;20.40;38.60;;;;;;20713873;28;20092;-78
2021/11/28 12:37:53;;;;;;;3.75;2.47;;;20.30;38.50;;;;;;20700824;28;20041;-77
2021/11/28 12:48:11;;;;;;;3.72;2.33;;;19.40;39.70;;;;;;20690477;28;20034;-75
2021/11/28 12:58:12;;;;;;;4.57;2.78;;;18.50;41.20;;;;;;20712155;28;20026;-77
2021/11/28 13:08:12;;;;;;;3.67;2.10;;;17.70;42.70;;;;;;20696858;28;20478;-75
2021/11/28 13:18:18;;;;;;;8.50;2.30;;;17.10;43.90;;;;;;20722700;28;20037;-75
2021/11/28 13:28:38;;;;;;;4.43;2.33;;;16.80;44.80;;;;;;20718587;28;20125;-77
2021/11/28 13:38:47;;;;;;;8.82;2.40;;;16.70;45.20;;;;;;20712481;28;20643;-75
2021/11/28 13:48:53;;;;;;;5.00;1.92;;;16.70;45.40;;;;;;20727247;28;20373;-77
2021/11/28 13:59:04;;;;;;;3.10;1.65;;;16.70;45.50;;;;;;20696373;28;20052;-74
2021/11/28 14:09:06;;;;;;;3.78;2.33;;;16.70;45.60;;;;;;20710151;28;20041;-73
2021/11/28 14:19:06;;;;;;;6.85;2.30;;;16.60;45.60;;;;;;20721607;28;20392;-72
2021/11/28 14:29:22;;;;;;;4.87;2.43;;;16.70;45.80;;;;;;20676525;28;20125;-74
2021/11/28 14:39:35;;;;;;;11.15;2.08;;;16.70;45.80;;;;;;20708598;28;20284;-76
2021/11/28 14:49:40;;;;;;;6.35;3.13;;;16.60;45.90;;;;;;20695126;28;20042;-76
2021/11/28 14:59:52;;;;;;;5.07;3.28;;;16.60;46.00;;;;;;20692277;28;20061;-76
2021/11/28 15:09:54;;;;;;;3.92;2.40;;;16.50;45.90;;;;;;20707232;28;20046;-76
2021/11/28 15:20:07;;;;;;;8.13;3.90;;;16.50;46.10;;;;;;20733366;28;20092;-75
2021/11/28 15:30:08;;;;;;;10.32;3.35;;;16.40;46.00;;;;;;20719916;28;20046;-76
2021/11/28 15:40:13;;;;;;;5.63;2.78;;;16.50;46.40;;;;;;20722938;28;20026;-79
2021/11/28 15:50:15;;;;;;;7.25;3.58;;;17.20;45.50;;;;;;20726518;28;20037;-78
2021/11/28 16:00:20;;;;;;;8.65;3.15;;;18.20;43.60;;;;;;20719937;28;20038;-78
2021/11/28 16:10:22;;;;;;;5.70;3.17;;;19.20;41.60;;;;;;20737692;28;20073;-78
2021/11/28 16:20:23;;;;;;;7.05;3.63;;;19.90;40.40;;;;;;20722807;28;20289;-80
2021/11/28 16:30:23;;;;;;;5.53;3.05;;;20.20;39.50;;;;;;20721576;28;20091;-80
2021/11/28 16:40:24;;;;;;;4.55;2.92;;;20.40;39.00;;;;;;20721307;28;20037;-80
2021/11/28 16:50:25;;;;;;;5.28;2.67;;;19.70;39.80;;;;;;20702864;28;20042;-79
2021/11/28 17:00:25;;;;;;;4.45;2.55;;;18.70;41.20;;;;;;20732057;28;20033;-80
2021/11/28 17:10:30;;;;;;;4.22;2.60;;;17.80;42.80;;;;;;20734651;28;20132;-80
2021/11/28 17:20:32;;;;;;;4.47;2.83;;;17.20;44.30;;;;;;20712607;28;20041;-80
2021/11/28 17:30:32;;;;;;;4.35;2.70;;;16.70;45.30;;;;;;20708824;28;20033;-80
2021/11/28 17:40:34;;;;;;;3.90;2.92;;;16.40;46.00;;;;;;20695666;28;20034;-78
2021/11/28 17:50:35;;;;;;;5.18;3.20;;;16.20;46.50;;;;;;20695497;28;20042;-76
2021/11/28 18:00:37;;;;;;;4.33;3.03;;;16.20;46.70;;;;;;20712433;28;20033;-78
2021/11/28 18:10:38;;;;;;;4.90;3.00;;;16.20;46.80;;;;;;20698183;28;20055;-77
2021/11/28 18:20:38;;;;;;;5.87;3.10;;;16.20;46.90;;;;;;20714156;28;20034;-75
2021/11/28 18:30:39;;;;;;;5.50;2.65;;;16.20;47.00;;;;;;20708924;28;20395;-75
2021/11/28 18:40:40;;;;;;;6.78;4.47;;;16.20;47.00;;;;;;20709275;28;20088;-74
2021/11/28 18:50:40;;;;;;;4.13;3.07;;;16.20;47.10;;;;;;20701909;28;20030;-74
2021/11/28 19:00:41;;;;;;;6.00;3.90;;;16.10;47.10;;;;;;20690004;28;20034;-74
2021/11/28 19:10:42;;;;;;;5.90;3.60;;;16.10;47.20;;;;;;20706622;28;20049;-74
2021/11/28 19:20:43;;;;;;;6.43;3.22;;;16.20;47.20;;;;;;20690306;28;20343;-75
2021/11/28 19:30:44;;;;;;;5.20;4.03;;;16.10;47.20;;;;;;20739661;28;20037;-74
2021/11/28 19:40:44;;;;;;;5.93;4.18;;;16.10;47.40;;;;;;20715846;28;20475;-74
2021/11/28 19:50:45;;;;;;;5.53;3.58;;;16.00;47.40;;;;;;20687250;28;20141;-77
2021/11/28 20:00:45;;;;;;;7.03;3.47;;;16.00;47.50;;;;;;20716821;28;20037;-76
2021/11/28 20:10:47;;;;;;;4.63;3.28;;;16.00;47.50;;;;;;20722322;28;20049;-75
2021/11/28 20:20:48;;;;;;;6.57;3.72;;;15.90;47.50;;;;;;20699720;28;20424;-76
2021/11/28 20:30:48;;;;;;;6.72;4.03;;;15.90;47.60;;;;;;20722814;28;20026;-76
2021/11/28 20:40:49;;;;;;;7.55;4.07;;;15.90;47.60;;;;;;20713812;28;20037;-75
2021/11/28 20:50:50;;;;;;;7.97;4.55;;;15.90;47.70;;;;;;20718171;28;20053;-75
2021/11/28 21:00:51;;;;;;;5.25;3.60;;;15.80;47.70;;;;;;20746067;28;20034;-76
2021/11/28 21:10:51;;;;;;;7.63;3.95;;;15.90;47.80;;;;;;20702993;28;20507;-76
2021/11/28 21:20:53;;;;;;;9.23;4.50;;;15.80;47.80;;;;;;20703076;28;20030;-75
2021/11/28 21:30:54;;;;;;;7.10;4.20;;;15.80;47.90;;;;;;20734760;28;20053;-75
2021/11/28 21:40:55;;;;;;;7.50;4.38;;;15.70;47.90;;;;;;20702311;28;20030;-75
2021/11/28 21:50:56;;;;;;;5.55;3.97;;;15.80;48.10;;;;;;20717124;28;20048;-76
2021/11/28 22:00:56;;;;;;;6.03;3.27;;;15.70;48.10;;;;;;20741665;28;20032;-76
2021/11/28 22:10:57;;;;;;;7.82;4.40;;;15.70;48.20;;;;;;20713214;28;20037;-75
2021/11/28 22:20:58;;;;;;;6.47;3.90;;;15.70;48.20;;;;;;20695264;28;20117;-75
2021/11/28 22:30:58;;;;;;;7.00;4.28;;;15.70;48.30;;;;;;20690065;28;20184;-75
2021/11/28 22:40:59;;;;;;;5.70;3.38;;;15.60;48.40;;;;;;20719525;28;20041;-75
2021/11/28 22:51:00;;;;;;;6.30;3.92;;;15.60;48.40;;;;;;20683991;28;20050;-76
2021/11/28 23:01:00;;;;;;;6.30;3.65;;;15.60;48.50;;;;;;20705834;28;20078;-75
2021/11/28 23:11:01;;;;;;;5.97;4.20;;;15.50;48.40;;;;;;20744298;28;20034;-75
2021/11/28 23:21:01;;;;;;;5.63;3.63;;;15.50;48.60;;;;;;20722155;28;20037;-75
2021/11/28 23:31:02;;;;;;;6.88;3.72;;;15.50;48.70;;;;;;20721347;28;20477;-74
2021/11/28 23:41:02;;;;;;;5.20;3.17;;;15.50;48.80;;;;;;20721747;28;20045;-74
2021/11/28 23:51:04;;;;;;;5.73;3.43;;;15.40;48.80;;;;;;20736096;28;20038;-76
